Terminal Aerodrome Forecast
Issued by NWS

Home | Current Version | Previous Version | Text Only | Print | Product List | Glossary On
Versions: 1 2 3 4 5 6 7 8 9 10 11 12 13 14 15 16 17 18 19
000
FTUS41 KCAR 271603 AAA
TAFFVE
TAF AMD
KFVE 271603Z 2716/2812 35014G30KT P6SM -SHRA SCT015 OVC025
     FM272300 04012KT P6SM OVC015=

USA.gov is the U.S. government's official web portal to all federal, state and local government web resources and services.